createdAt,value
2019-05-14T00:01:57.921Z,101770.66
2019-05-14T00:04:33.410Z,101767.33
2019-05-14T00:07:07.152Z,101761.23
2019-05-14T00:09:44.038Z,101762.12
2019-05-14T00:12:17.378Z,101772.92
2019-05-14T00:14:55.950Z,101767.73
2019-05-14T00:17:34.636Z,101765.98
2019-05-14T00:20:10.201Z,101767.66
2019-05-14T00:22:45.928Z,101763.49
2019-05-14T00:25:22.049Z,101769.33
2019-05-14T00:27:56.958Z,101760.10
2019-05-14T00:30:31.642Z,101753.99
2019-05-14T00:33:06.376Z,101760.52
2019-05-14T00:35:42.959Z,101756.67
2019-05-14T00:38:17.101Z,101755.45
2019-05-14T00:40:51.382Z,101747.34
2019-05-14T00:43:32.490Z,101755.94
2019-05-14T00:46:11.810Z,101754.16
2019-05-14T00:48:51.254Z,101756.27
2019-05-14T00:51:26.467Z,101760.89
2019-05-14T00:54:03.548Z,101754.75
2019-05-14T00:56:37.487Z,101756.59
2019-05-14T00:59:12.268Z,101759.31
2019-05-14T01:01:58.135Z,101753.70
2019-05-14T01:04:42.795Z,101756.07
2019-05-14T01:07:21.207Z,101751.69
2019-05-14T01:10:11.578Z,101741.59
2019-05-14T01:12:45.798Z,101741.34
2019-05-14T01:15:26.797Z,101739.69
2019-05-14T01:18:02.206Z,101743.10
2019-05-14T01:20:36.067Z,101742.88
2019-05-14T01:23:12.155Z,101741.87
2019-05-14T01:25:46.132Z,101739.06
2019-05-14T01:28:21.698Z,101732.95
2019-05-14T01:30:57.457Z,101730.83
2019-05-14T01:33:31.807Z,101730.17
2019-05-14T01:36:06.465Z,101732.20
2019-05-14T01:38:41.708Z,101727.19
2019-05-14T01:41:15.304Z,101731.80
2019-05-14T01:43:47.847Z,101724.66
2019-05-14T01:46:21.265Z,101724.87
2019-05-14T01:48:53.918Z,101725.63
2019-05-14T01:51:26.521Z,101717.42
2019-05-14T01:54:01.467Z,101722.97
2019-05-14T01:56:34.162Z,101721.87
2019-05-14T01:59:08.292Z,101720.50
2019-05-14T02:01:41.639Z,101714.05
2019-05-14T02:04:14.351Z,101720.42
2019-05-14T02:06:46.944Z,101708.42
2019-05-14T02:09:21.551Z,101704.98
2019-05-14T02:11:54.553Z,101703.27
2019-05-14T02:14:27.376Z,101714.27
2019-05-14T02:17:01.904Z,101714.14
2019-05-14T02:19:34.865Z,101702.42
2019-05-14T02:22:07.508Z,101707.36
2019-05-14T02:24:41.802Z,101704.36
2019-05-14T02:27:14.750Z,101706.58
2019-05-14T02:29:47.290Z,101706.83
2019-05-14T02:32:20.174Z,101701.55
2019-05-14T02:34:52.836Z,101703.16
2019-05-14T02:37:25.488Z,101703.25
2019-05-14T02:40:00.006Z,101706.03
2019-05-14T02:42:33.528Z,101704.71
2019-05-14T02:45:09.107Z,101706.05
2019-05-14T02:47:41.780Z,101703.12
2019-05-14T02:50:14.703Z,101705.79
2019-05-14T02:52:49.699Z,101694.61
2019-05-14T02:55:22.578Z,101703.92
2019-05-14T02:57:59.546Z,101705.30
2019-05-14T03:00:34.517Z,101702.20
2019-05-14T03:03:09.848Z,101706.96
2019-05-14T03:05:42.968Z,101706.97
2019-05-14T03:08:15.848Z,101712.52
2019-05-14T03:10:50.423Z,101712.99
2019-05-14T03:13:23.301Z,101712.61
2019-05-14T03:15:59.012Z,101712.57
2019-05-14T03:18:32.554Z,101708.58
2019-05-14T03:21:05.287Z,101713.19
2019-05-14T03:23:39.194Z,101705.30
2019-05-14T03:26:12.149Z,101708.56
2019-05-14T03:28:49.632Z,101713.80
2019-05-14T03:31:23.509Z,101718.80
2019-05-14T03:34:02.510Z,101720.05
2019-05-14T03:36:42.298Z,101721.51
2019-05-14T03:39:18.958Z,101726.16
2019-05-14T03:41:54.426Z,101735.34
2019-05-14T03:44:29.129Z,101725.11
2019-05-14T03:47:05.142Z,101723.03
2019-05-14T03:49:39.690Z,101731.26
2019-05-14T03:52:13.499Z,101727.86
2019-05-14T03:54:49.420Z,101722.61
2019-05-14T03:57:24.489Z,101716.43
2019-05-14T03:59:59.665Z,101717.38
2019-05-14T04:02:34.633Z,101715.66
2019-05-14T04:05:09.520Z,101716.14
2019-05-14T04:07:45.491Z,101709.27
2019-05-14T04:10:19.542Z,101715.60
2019-05-14T04:12:54.072Z,101715.11
2019-05-14T04:15:30.444Z,101716.16
2019-05-14T04:18:04.800Z,101716.02
2019-05-14T04:20:43.644Z,101722.71
2019-05-14T04:23:19.833Z,101720.12
2019-05-14T04:25:54.747Z,101715.81
2019-05-14T04:28:30.086Z,101721.48
2019-05-14T04:31:05.495Z,101719.73
2019-05-14T04:33:45.488Z,101728.30
2019-05-14T04:36:19.513Z,101731.52
2019-05-14T04:38:55.177Z,101724.39
2019-05-14T04:41:30.614Z,101718.97
2019-05-14T04:44:03.417Z,101712.13
2019-05-14T04:46:39.458Z,101718.15
2019-05-14T04:49:15.154Z,101721.30
2019-05-14T04:51:50.374Z,101720.02
2019-05-14T04:54:23.609Z,101721.45
2019-05-14T04:57:00.056Z,101722.22
2019-05-14T04:59:33.948Z,101722.19
2019-05-14T05:02:09.596Z,101725.37
2019-05-14T05:04:43.422Z,101728.91
2019-05-14T05:08:09.048Z,101726.58
2019-05-14T05:10:49.496Z,101720.40
2019-05-14T05:13:22.389Z,101713.02
2019-05-14T05:16:01.334Z,101709.75
2019-05-14T05:18:34.886Z,101707.88
2019-05-14T05:21:08.765Z,101715.48
2019-05-14T05:23:42.414Z,101707.38
2019-05-14T05:26:18.274Z,101712.33
2019-05-14T05:29:05.594Z,101710.89
2019-05-14T05:31:59.374Z,101713.88
2019-05-14T05:34:33.134Z,101719.29
2019-05-14T05:37:08.406Z,101724.97
2019-05-14T05:39:41.383Z,101724.32
2019-05-14T05:42:18.591Z,101724.96
2019-05-14T05:44:54.966Z,101719.66
2019-05-14T05:47:29.119Z,101720.13
2019-05-14T05:50:02.908Z,101717.52
2019-05-14T05:52:41.170Z,101714.55
2019-05-14T05:55:15.224Z,101709.83
2019-05-14T05:57:49.428Z,101704.86
2019-05-14T06:00:40.066Z,101708.14
2019-05-14T06:03:14.863Z,101708.02
2019-05-14T06:05:51.798Z,101706.70
2019-05-14T06:08:28.034Z,101710.76
2019-05-14T06:11:00.773Z,101698.44
2019-05-14T06:13:34.536Z,101697.63
2019-05-14T06:16:09.529Z,101697.13
2019-05-14T06:18:45.328Z,101703.73
2019-05-14T06:21:22.957Z,101697.83
2019-05-14T06:23:58.290Z,101702.27
2019-05-14T06:26:33.071Z,101696.64
2019-05-14T06:29:08.464Z,101695.81
2019-05-14T06:31:41.663Z,101693.83
2019-05-14T06:34:14.313Z,101690.75
2019-05-14T06:36:48.527Z,101693.34
2019-05-14T06:39:28.137Z,101693.68
2019-05-14T06:42:00.896Z,101691.44
2019-05-14T06:44:35.765Z,101682.30
2019-05-14T06:47:09.460Z,101674.73
2019-05-14T06:49:43.690Z,101668.84
2019-05-14T06:52:18.794Z,101677.07
2019-05-14T06:54:52.693Z,101676.83
2019-05-14T06:57:28.389Z,101676.05
2019-05-14T07:00:04.667Z,101669.42
2019-05-14T07:02:43.226Z,101674.30
2019-05-14T07:05:19.868Z,101673.16
2019-05-14T07:07:54.127Z,101675.13
2019-05-14T07:10:28.708Z,101675.62
2019-05-14T07:13:01.443Z,101669.53
2019-05-14T07:15:39.060Z,101669.38
2019-05-14T07:18:12.237Z,101663.86
2019-05-14T07:20:44.798Z,101667.14
2019-05-14T07:23:19.514Z,101658.52
2019-05-14T07:25:52.732Z,101655.81
2019-05-14T07:28:28.961Z,101649.52
2019-05-14T07:31:01.987Z,101650.36
2019-05-14T07:33:39.020Z,101649.16
2019-05-14T07:36:12.074Z,101645.96
2019-05-14T07:38:48.638Z,101641.66
2019-05-14T07:41:22.138Z,101641.20
2019-05-14T07:43:54.854Z,101639.46
2019-05-14T07:46:28.493Z,101639.56
2019-05-14T07:49:08.130Z,101641.59
2019-05-14T07:51:42.603Z,101639.49
2019-05-14T07:54:15.228Z,101636.81
2019-05-14T07:56:53.089Z,101631.25
2019-05-14T07:59:28.760Z,101635.45
2019-05-14T08:02:04.012Z,101634.38
2019-05-14T08:04:38.080Z,101632.67
2019-05-14T08:07:11.952Z,101629.77
2019-05-14T08:09:45.174Z,101628.73
2019-05-14T08:12:21.175Z,101621.09
2019-05-14T08:15:10.920Z,101614.61
2019-05-14T08:17:48.192Z,101619.53
2019-05-14T08:20:22.056Z,101624.20
2019-05-14T08:22:54.603Z,101618.45
2019-05-14T08:25:29.453Z,101617.02
2019-05-14T08:28:08.153Z,101616.31
2019-05-14T08:30:55.827Z,101609.09
2019-05-14T08:33:30.549Z,101614.92
2019-05-14T08:36:08.683Z,101620.59
2019-05-14T08:38:45.449Z,101611.60
2019-05-14T08:41:29.228Z,101615.64
2019-05-14T08:44:08.310Z,101608.78
2019-05-14T08:46:41.304Z,101599.34
2019-05-14T08:49:39.068Z,101601.80
2019-05-14T08:52:25.389Z,101603.09
2019-05-14T08:55:10.073Z,101609.16
2019-05-14T08:57:59.219Z,101604.05
2019-05-14T09:00:33.195Z,101601.06
2019-05-14T09:03:08.528Z,101605.56
2019-05-14T09:05:43.540Z,101600.72
2019-05-14T09:08:39.374Z,101603.92
2019-05-14T09:11:24.920Z,101589.42
2019-05-14T09:14:02.842Z,101588.55
2019-05-14T09:16:46.266Z,101580.22
2019-05-14T09:19:28.723Z,101573.78
2019-05-14T09:22:03.475Z,101575.14
2019-05-14T09:24:38.670Z,101560.15
2019-05-14T09:27:19.258Z,101557.73
2019-05-14T09:29:58.961Z,101557.63
2019-05-14T09:32:38.522Z,101553.14
2019-05-14T09:35:13.733Z,101550.66
2019-05-14T09:37:51.284Z,101550.64
2019-05-14T09:40:33.330Z,101542.36
2019-05-14T09:43:17.914Z,101547.88
2019-05-14T09:46:04.962Z,101545.27
2019-05-14T09:48:41.268Z,101538.04
2019-05-14T09:51:14.623Z,101550.08
2019-05-14T09:53:48.873Z,101538.22
2019-05-14T09:56:30.425Z,101542.89
2019-05-14T09:59:09.749Z,101535.30
2019-05-14T10:01:43.466Z,101542.81
2019-05-14T10:04:16.952Z,101548.73
2019-05-14T10:06:53.641Z,101538.78
2019-05-14T10:09:28.816Z,101537.81
2019-05-14T10:12:04.982Z,101523.12
2019-05-14T10:14:39.273Z,101536.45
2019-05-14T10:17:12.250Z,101546.98
2019-05-14T10:19:49.860Z,101543.95
2019-05-14T10:22:29.776Z,101551.56
2019-05-14T10:25:05.211Z,101540.54
2019-05-14T10:27:39.852Z,101535.91
2019-05-14T10:30:18.296Z,101553.17
2019-05-14T10:32:52.993Z,101554.04
2019-05-14T10:35:28.468Z,101545.67
2019-05-14T10:38:02.620Z,101548.64
2019-05-14T10:40:35.234Z,101542.40
2019-05-14T10:43:09.122Z,101534.27
2019-05-14T10:45:44.054Z,101527.27
2019-05-14T10:48:19.258Z,101525.17
2019-05-14T10:51:02.641Z,101522.73
2019-05-14T10:53:51.257Z,101520.05
2019-05-14T10:56:38.101Z,101507.56
2019-05-14T10:59:59.319Z,101504.12
2019-05-14T11:02:38.744Z,101501.20
2019-05-14T11:05:21.097Z,101490.09
2019-05-14T11:07:55.779Z,101474.63
2019-05-14T11:10:29.854Z,101481.31
2019-05-14T11:13:04.001Z,101481.22
2019-05-14T11:15:41.206Z,101468.13
2019-05-14T11:18:15.518Z,101481.14
2019-05-14T11:21:17.455Z,101465.97
2019-05-14T11:23:52.377Z,101463.55
2019-05-14T11:26:29.449Z,101463.76
2019-05-14T11:29:02.878Z,101458.17
2019-05-14T11:31:39.155Z,101464.04
2019-05-14T11:34:14.743Z,101462.67
2019-05-14T11:36:49.887Z,101455.20
2019-05-14T11:39:22.678Z,101460.52
2019-05-14T11:41:59.025Z,101445.04
2019-05-14T11:44:33.558Z,101447.56
2019-05-14T11:47:09.092Z,101441.39
2019-05-14T11:49:42.465Z,101437.98
2019-05-14T11:52:17.939Z,101433.75
2019-05-14T11:54:52.236Z,101438.44
2019-05-14T11:57:25.149Z,101434.19
2019-05-14T11:59:59.556Z,101432.59
2019-05-14T12:02:38.468Z,101425.70
2019-05-14T12:05:18.731Z,101424.75
2019-05-14T12:07:52.430Z,101420.64
2019-05-14T12:10:29.152Z,101413.31
2019-05-14T12:13:02.824Z,101413.58
2019-05-14T12:15:38.651Z,101408.16
2019-05-14T12:18:13.984Z,101400.81
2019-05-14T12:20:49.907Z,101399.22
2019-05-14T12:23:23.339Z,101386.59
2019-05-14T12:25:58.748Z,101384.55
2019-05-14T12:28:32.718Z,101375.48
2019-05-14T12:31:09.429Z,101372.31
2019-05-14T12:33:43.087Z,101372.46
2019-05-14T12:36:19.444Z,101367.38
2019-05-14T12:38:59.148Z,101359.51
2019-05-14T12:41:32.654Z,101359.06
2019-05-14T12:44:09.364Z,101360.33
2019-05-14T12:46:42.778Z,101362.23
2019-05-14T12:49:18.747Z,101362.58
2019-05-14T12:51:52.132Z,101356.75
2019-05-14T12:54:29.458Z,101371.68
2019-05-14T12:57:05.479Z,101367.16
2019-05-14T12:59:42.214Z,101367.08
2019-05-14T13:02:18.720Z,101364.72
2019-05-14T13:04:53.303Z,101360.58
2019-05-14T13:07:26.490Z,101358.84
2019-05-14T13:10:05.917Z,101352.55
2019-05-14T13:12:39.881Z,101340.28
2019-05-14T13:15:15.935Z,101348.62
2019-05-14T13:17:48.676Z,101343.39
2019-05-14T13:20:23.991Z,101338.34
2019-05-14T13:23:00.677Z,101328.04
2019-05-14T13:25:39.173Z,101329.41
2019-05-14T13:28:12.273Z,101331.39
2019-05-14T13:30:45.097Z,101329.08
2019-05-14T13:33:19.432Z,101301.13
2019-05-14T13:35:55.741Z,101313.63
2019-05-14T13:38:29.654Z,101313.84
2019-05-14T13:41:02.361Z,101300.98
2019-05-14T13:43:38.711Z,101301.02
2019-05-14T13:46:15.221Z,101300.11
2019-05-14T13:48:50.319Z,101296.48
2019-05-14T13:51:23.909Z,101306.88
2019-05-14T13:54:00.787Z,101301.76
2019-05-14T13:56:38.849Z,101303.93
2019-05-14T13:59:20.513Z,101297.61
2019-05-14T14:01:59.195Z,101293.95
2019-05-14T14:04:38.071Z,101292.04
2019-05-14T14:07:19.695Z,101297.38
2019-05-14T14:09:58.983Z,101291.65
2019-05-14T14:12:33.062Z,101288.04
2019-05-14T14:15:09.651Z,101280.68
2019-05-14T14:17:45.658Z,101285.62
2019-05-14T14:20:19.587Z,101280.38
2019-05-14T14:22:52.259Z,101279.36
2019-05-14T14:25:25.783Z,101270.98
2019-05-14T14:28:01.849Z,101260.02
2019-05-14T14:30:39.566Z,101268.03
2019-05-14T14:33:12.414Z,101258.77
2019-05-14T14:35:48.366Z,101256.09
2019-05-14T14:38:25.282Z,101254.52
2019-05-14T14:40:59.529Z,101246.77
2019-05-14T14:43:33.624Z,101255.13
2019-05-14T14:46:13.944Z,101256.66
2019-05-14T14:48:51.302Z,101248.04
2019-05-14T14:51:24.753Z,101245.51
2019-05-14T14:54:10.841Z,101246.50
2019-05-14T14:56:52.623Z,101239.14
2019-05-14T14:59:30.364Z,101235.34
2019-05-14T15:02:09.954Z,101234.97
2019-05-14T15:04:52.473Z,101234.17
2019-05-14T15:07:29.741Z,101220.49
2019-05-14T15:10:08.475Z,101225.82
2019-05-14T15:12:42.577Z,101230.05
2019-05-14T15:15:18.668Z,101229.27
2019-05-14T15:17:53.201Z,101219.51
2019-05-14T15:20:28.977Z,101215.36
2019-05-14T15:23:03.258Z,101211.20
2019-05-14T15:25:36.483Z,101206.43
2019-05-14T15:28:10.633Z,101208.56
2019-05-14T15:30:45.682Z,101200.99
2019-05-14T15:33:19.011Z,101192.04
2019-05-14T15:35:51.667Z,101200.63
2019-05-14T15:38:30.291Z,101197.94
2019-05-14T15:41:05.208Z,101205.49
2019-05-14T15:43:39.565Z,101200.75
2019-05-14T15:46:14.439Z,101195.27
2019-05-14T15:48:48.686Z,101194.06
2019-05-14T15:51:23.322Z,101188.28
2019-05-14T15:54:11.209Z,101179.19
2019-05-14T15:56:58.649Z,101171.91
2019-05-14T15:59:32.303Z,101166.19
2019-05-14T16:02:09.110Z,101164.33
2019-05-14T16:04:42.975Z,101163.27
2019-05-14T16:07:18.424Z,101172.20
2019-05-14T16:09:54.936Z,101173.33
2019-05-14T16:12:34.852Z,101176.09
2019-05-14T16:15:10.656Z,101177.30
2019-05-14T16:17:53.700Z,101174.57
2019-05-14T16:20:39.346Z,101175.78
2019-05-14T16:23:13.870Z,101175.33
2019-05-14T16:25:48.319Z,101176.77
2019-05-14T16:28:22.038Z,101169.19
2019-05-14T16:30:55.753Z,101167.11
2019-05-14T16:33:29.675Z,101168.98
2019-05-14T16:36:04.520Z,101168.45
2019-05-14T16:38:39.747Z,101168.22
2019-05-14T16:41:13.979Z,101171.10
2019-05-14T16:43:50.985Z,101163.21
2019-05-14T16:46:29.026Z,101166.27
2019-05-14T16:49:03.729Z,101176.07
2019-05-14T16:51:38.334Z,101172.21
2019-05-14T16:54:13.175Z,101180.27
2019-05-14T16:56:48.295Z,101161.83
2019-05-14T16:59:24.748Z,101166.50
2019-05-14T17:02:01.873Z,101168.91
2019-05-14T17:04:48.407Z,101169.44
2019-05-14T17:07:23.422Z,101171.32
2019-05-14T17:09:58.974Z,101173.18
2019-05-14T17:12:48.215Z,101172.39
2019-05-14T17:15:28.613Z,101171.49
2019-05-14T17:18:04.892Z,101171.14
2019-05-14T17:20:40.473Z,101176.13
2019-05-14T17:23:19.119Z,101172.80
2019-05-14T17:25:57.845Z,101172.59
2019-05-14T17:28:40.635Z,101174.23
2019-05-14T17:31:15.269Z,101178.00
2019-05-14T17:33:49.214Z,101177.20
2019-05-14T17:36:28.222Z,101174.05
2019-05-14T17:39:02.527Z,101177.86
2019-05-14T17:41:35.837Z,101172.41
2019-05-14T17:44:18.370Z,101164.75
2019-05-14T17:46:59.550Z,101160.95
2019-05-14T17:49:33.688Z,101164.41
2019-05-14T17:52:09.629Z,101164.94
2019-05-14T17:54:45.144Z,101163.91
2019-05-14T17:57:24.481Z,101167.35
2019-05-14T18:00:00.404Z,101160.58
2019-05-14T18:02:37.193Z,101164.03
2019-05-14T18:05:11.706Z,101160.23
2019-05-14T18:07:48.375Z,101163.91
2019-05-14T18:10:23.474Z,101157.27
2019-05-14T18:12:59.769Z,101150.55
2019-05-14T18:15:33.783Z,101157.79
2019-05-14T18:18:08.882Z,101155.91
2019-05-14T18:20:42.908Z,101157.68
2019-05-14T18:23:18.194Z,101156.09
2019-05-14T18:26:03.971Z,101151.52
2019-05-14T18:28:47.735Z,101152.88
2019-05-14T18:31:23.228Z,101156.81
2019-05-14T18:33:58.766Z,101156.30
2019-05-14T18:36:53.146Z,101145.28
2019-05-14T18:39:29.368Z,101147.45
2019-05-14T18:42:03.885Z,101155.23
2019-05-14T18:44:39.124Z,101153.39
2019-05-14T18:47:12.230Z,101159.03
2019-05-14T18:49:48.627Z,101161.04
2019-05-14T18:52:29.656Z,101155.63
2019-05-14T18:55:03.488Z,101160.71
2019-05-14T18:57:39.802Z,101153.43
2019-05-14T19:00:18.573Z,101154.28
2019-05-14T19:02:53.584Z,101158.08
2019-05-14T19:05:29.179Z,101155.75
2019-05-14T19:08:05.417Z,101156.59
2019-05-14T19:10:42.907Z,101153.70
2019-05-14T19:13:18.655Z,101159.42
2019-05-14T19:15:55.131Z,101156.95
2019-05-14T19:18:30.691Z,101151.04
2019-05-14T19:21:08.633Z,101154.01
2019-05-14T19:23:45.350Z,101149.55
2019-05-14T19:26:36.157Z,101146.53
2019-05-14T19:29:18.531Z,101145.14
2019-05-14T19:31:54.976Z,101145.27
2019-05-14T19:34:30.317Z,101147.54
2019-05-14T19:37:08.358Z,101147.31
2019-05-14T19:39:45.392Z,101147.50
2019-05-14T19:42:19.940Z,101152.41
2019-05-14T19:44:54.150Z,101152.13
2019-05-14T19:47:29.311Z,101150.48
2019-05-14T19:50:02.645Z,101148.42
2019-05-14T19:52:39.046Z,101153.34
2019-05-14T19:55:14.948Z,101150.36
2019-05-14T19:57:48.964Z,101149.29
2019-05-14T20:00:28.795Z,101147.57
2019-05-14T20:03:02.637Z,101150.66
2019-05-14T20:05:39.910Z,101156.59
2019-05-14T20:08:14.675Z,101150.39
2019-05-14T20:10:49.024Z,101152.06
2019-05-14T20:13:24.483Z,101153.61
2019-05-14T20:15:59.071Z,101153.74
2019-05-14T20:18:33.709Z,101155.63
2019-05-14T20:21:08.749Z,101158.05
2019-05-14T20:23:48.157Z,101153.91
2019-05-14T20:26:23.410Z,101156.52
2019-05-14T20:28:59.088Z,101162.10
2019-05-14T20:31:35.824Z,101157.34
2019-05-14T20:34:10.627Z,101153.38
2019-05-14T20:36:45.548Z,101147.80
2019-05-14T20:39:20.217Z,101145.81
2019-05-14T20:41:58.501Z,101143.16
2019-05-14T20:44:33.984Z,101144.51
2019-05-14T20:47:11.124Z,101143.45
2019-05-14T20:49:45.930Z,101139.26
2019-05-14T20:52:22.460Z,101143.46
2019-05-14T20:55:03.533Z,101137.98
2019-05-14T20:57:38.317Z,101133.88
2019-05-14T21:00:33.109Z,101136.77
2019-05-14T21:03:12.472Z,101136.46
2019-05-14T21:05:58.339Z,101135.17
2019-05-14T21:08:52.356Z,101138.32
2019-05-14T21:11:29.110Z,101134.55
2019-05-14T21:14:05.026Z,101134.55
2019-05-14T21:16:48.942Z,101139.09
2019-05-14T21:19:29.413Z,101134.20
2019-05-14T21:22:03.323Z,101131.58
2019-05-14T21:24:39.138Z,101127.43
2019-05-14T21:27:15.446Z,101133.90
2019-05-14T21:29:52.068Z,101130.09
2019-05-14T21:32:31.348Z,101133.02
2019-05-14T21:35:06.236Z,101130.78
2019-05-14T21:37:42.266Z,101133.78
2019-05-14T21:40:18.636Z,101130.97
2019-05-14T21:42:56.123Z,101125.32
2019-05-14T21:45:38.458Z,101120.73
2019-05-14T21:48:19.673Z,101127.15
2019-05-14T21:51:01.355Z,101118.14
2019-05-14T21:53:38.694Z,101119.27
2019-05-14T21:56:21.780Z,101118.91
2019-05-14T21:59:15.337Z,101115.96
2019-05-14T22:02:00.043Z,101110.24
2019-05-14T22:04:42.535Z,101111.01
2019-05-14T22:07:23.760Z,101111.10
2019-05-14T22:10:01.008Z,101113.51
2019-05-14T22:12:51.219Z,101110.30
2019-05-14T22:15:40.042Z,101113.84
2019-05-14T22:18:21.224Z,101111.59
2019-05-14T22:20:57.968Z,101112.79
2019-05-14T22:23:33.773Z,101114.84
2019-05-14T22:26:08.689Z,101110.61
2019-05-14T22:28:45.051Z,101112.44
2019-05-14T22:31:20.020Z,101106.22
2019-05-14T22:33:58.257Z,101103.07
2019-05-14T22:36:34.177Z,101106.58
2019-05-14T22:39:09.504Z,101101.75
2019-05-14T22:41:43.502Z,101110.67
2019-05-14T22:44:18.719Z,101107.07
2019-05-14T22:46:52.924Z,101102.37
2019-05-14T22:49:28.461Z,101102.01
2019-05-14T22:52:03.265Z,101102.06
2019-05-14T22:54:38.646Z,101102.84
2019-05-14T22:57:13.059Z,101101.84
2019-05-14T22:59:45.925Z,101101.83
2019-05-14T23:02:19.437Z,101096.09
2019-05-14T23:04:53.466Z,101095.59
2019-05-14T23:07:29.863Z,101096.84
2019-05-14T23:10:03.260Z,101095.52
2019-05-14T23:12:38.531Z,101096.08
2019-05-14T23:15:14.019Z,101099.18
2019-05-14T23:17:52.311Z,101094.14
2019-05-14T23:20:29.059Z,101097.08
2019-05-14T23:23:09.299Z,101093.06
2019-05-14T23:25:44.518Z,101093.63
2019-05-14T23:28:19.262Z,101093.02
2019-05-14T23:30:53.427Z,101089.95
2019-05-14T23:33:28.856Z,101088.77
2019-05-14T23:36:05.408Z,101085.77
2019-05-14T23:38:38.950Z,101088.07
2019-05-14T23:41:11.610Z,101082.98
2019-05-14T23:43:44.193Z,101079.97
2019-05-14T23:46:18.316Z,101082.92
2019-05-14T23:48:50.929Z,101077.44
2019-05-14T23:51:23.571Z,101074.27
2019-05-14T23:53:57.511Z,101079.98
2019-05-14T23:56:30.137Z,101072.27
2019-05-14T23:59:03.086Z,101075.51
